createdAt,value
2018-10-04T00:01:37.413Z,9.00
2018-10-04T00:04:06.175Z,8.90
2018-10-04T00:06:35.357Z,8.90
2018-10-04T00:09:05.288Z,8.80
2018-10-04T00:11:33.872Z,8.80
2018-10-04T00:14:02.420Z,8.70
2018-10-04T00:16:30.990Z,8.60
2018-10-04T00:18:59.540Z,8.60
2018-10-04T00:21:28.079Z,8.60
2018-10-04T00:23:56.648Z,8.60
2018-10-04T00:26:25.394Z,8.50
2018-10-04T00:28:54.003Z,8.50
2018-10-04T00:31:22.544Z,8.50
2018-10-04T00:33:51.074Z,8.50
2018-10-04T00:36:19.627Z,8.50
2018-10-04T00:38:48.200Z,8.50
2018-10-04T00:41:16.765Z,8.50
2018-10-04T00:43:45.295Z,8.50
2018-10-04T00:46:13.841Z,8.40
2018-10-04T00:48:42.395Z,8.40
2018-10-04T00:51:10.966Z,8.40
2018-10-04T00:53:39.538Z,8.40
2018-10-04T00:56:08.074Z,8.40
2018-10-04T00:58:37.614Z,8.30
2018-10-04T01:01:06.217Z,8.30
2018-10-04T01:03:34.744Z,8.30
2018-10-04T01:06:03.283Z,8.30
2018-10-04T01:08:31.841Z,8.30
2018-10-04T01:11:00.420Z,8.30
2018-10-04T01:13:28.999Z,8.30
2018-10-04T01:15:57.525Z,8.20
2018-10-04T01:18:37.364Z,8.20
2018-10-04T01:21:06.515Z,8.30
2018-10-04T01:23:35.146Z,8.20
2018-10-04T01:26:03.735Z,8.20
2018-10-04T01:28:32.412Z,8.20
2018-10-04T01:31:00.961Z,8.20
2018-10-04T01:33:29.498Z,8.20
2018-10-04T01:35:58.051Z,8.10
2018-10-04T01:38:26.588Z,8.10
2018-10-04T01:40:55.144Z,8.00
2018-10-04T01:43:23.701Z,8.10
2018-10-04T01:45:52.264Z,8.00
2018-10-04T01:48:20.832Z,8.00
2018-10-04T01:50:50.036Z,8.00
2018-10-04T01:53:18.581Z,7.90
2018-10-04T01:55:47.188Z,7.90
2018-10-04T01:58:15.729Z,7.80
2018-10-04T02:00:44.273Z,7.80
2018-10-04T02:03:12.832Z,7.80
2018-10-04T02:05:41.453Z,7.80
2018-10-04T02:08:10.016Z,7.80
2018-10-04T02:10:38.575Z,7.80
2018-10-04T02:13:07.313Z,7.80
2018-10-04T02:15:35.886Z,7.80
2018-10-04T02:18:04.573Z,7.80
2018-10-04T02:20:33.122Z,7.80
2018-10-04T02:23:01.654Z,7.80
2018-10-04T02:25:30.184Z,7.80
2018-10-04T02:27:58.760Z,7.80
2018-10-04T02:30:27.296Z,7.80
2018-10-04T02:32:55.865Z,7.70
2018-10-04T02:35:24.437Z,7.70
2018-10-04T02:37:52.969Z,7.70
2018-10-04T02:40:21.528Z,7.70
2018-10-04T02:42:50.268Z,7.70
2018-10-04T02:45:18.945Z,7.70
2018-10-04T02:47:47.526Z,7.70
2018-10-04T02:50:16.076Z,7.70
2018-10-04T02:52:44.765Z,7.70
2018-10-04T02:55:18.720Z,7.60
2018-10-04T02:57:47.328Z,7.60
2018-10-04T03:00:15.904Z,7.60
2018-10-04T03:02:44.452Z,7.60
2018-10-04T03:05:13.016Z,7.60
2018-10-04T03:07:41.569Z,7.60
2018-10-04T03:10:10.212Z,7.60
2018-10-04T03:12:38.847Z,7.60
2018-10-04T03:15:07.456Z,7.60
2018-10-04T03:17:36.053Z,7.60
2018-10-04T03:20:04.676Z,7.60
2018-10-04T03:22:33.224Z,7.60
2018-10-04T03:25:01.978Z,7.60
2018-10-04T03:27:30.680Z,7.60
2018-10-04T03:29:59.256Z,7.60
2018-10-04T03:32:27.799Z,7.60
2018-10-04T03:34:56.343Z,7.60
2018-10-04T03:37:24.898Z,7.60
2018-10-04T03:39:53.458Z,7.70
2018-10-04T03:42:21.999Z,7.70
2018-10-04T03:44:50.960Z,7.70
2018-10-04T03:47:19.594Z,7.70
2018-10-04T03:49:48.121Z,7.70
2018-10-04T03:52:16.664Z,7.70
2018-10-04T03:54:45.223Z,7.70
2018-10-04T03:57:14.001Z,7.70
2018-10-04T03:59:42.577Z,7.70
2018-10-04T04:02:11.152Z,7.70
2018-10-04T04:04:39.684Z,7.60
2018-10-04T04:07:08.451Z,7.60
2018-10-04T04:09:36.998Z,7.60
2018-10-04T04:12:05.553Z,7.60
2018-10-04T04:14:34.123Z,7.60
2018-10-04T04:17:02.719Z,7.60
2018-10-04T04:19:31.264Z,7.50
2018-10-04T04:21:59.912Z,7.50
2018-10-04T04:24:28.461Z,7.50
2018-10-04T04:26:57.234Z,7.50
2018-10-04T04:29:25.904Z,7.50
2018-10-04T04:31:54.464Z,7.50
2018-10-04T04:34:23.024Z,7.40
2018-10-04T04:36:52.333Z,7.40
2018-10-04T04:39:20.883Z,7.40
2018-10-04T04:41:49.445Z,7.40
2018-10-04T04:44:17.982Z,7.40
2018-10-04T04:46:46.699Z,7.40
2018-10-04T04:49:15.228Z,7.40
2018-10-04T04:51:44.352Z,7.30
2018-10-04T04:55:26.196Z,7.20
2018-10-04T04:57:55.966Z,7.20
2018-10-04T05:00:25.750Z,7.30
2018-10-04T05:02:54.944Z,7.30
2018-10-04T05:05:24.220Z,7.20
2018-10-04T05:07:54.138Z,7.30
2018-10-04T05:10:23.336Z,7.30
2018-10-04T05:12:52.927Z,7.20
2018-10-04T05:15:21.695Z,7.20
2018-10-04T05:17:50.523Z,7.20
2018-10-04T05:20:19.124Z,7.20
2018-10-04T05:22:47.699Z,7.20
2018-10-04T05:25:16.301Z,7.20
2018-10-04T05:27:44.893Z,7.20
2018-10-04T05:30:13.422Z,7.30
2018-10-04T05:32:41.966Z,7.20
2018-10-04T05:35:10.575Z,7.20
2018-10-04T05:37:39.122Z,7.20
2018-10-04T05:40:07.747Z,7.30
2018-10-04T05:42:36.398Z,7.30
2018-10-04T05:45:05.382Z,7.30
2018-10-04T05:47:33.845Z,7.30
2018-10-04T05:50:02.378Z,7.30
2018-10-04T05:52:30.925Z,7.30
2018-10-04T05:54:59.452Z,7.30
2018-10-04T05:57:28.193Z,7.30
2018-10-04T06:00:08.158Z,7.40
2018-10-04T06:02:36.725Z,7.40
2018-10-04T06:05:05.390Z,7.40
2018-10-04T06:07:34.089Z,7.40
2018-10-04T06:10:02.755Z,7.40
2018-10-04T06:12:31.286Z,7.40
2018-10-04T06:14:59.865Z,7.40
2018-10-04T06:17:28.666Z,7.40
2018-10-04T06:19:57.231Z,7.40
2018-10-04T06:22:25.803Z,7.40
2018-10-04T06:24:55.475Z,7.50
2018-10-04T06:27:25.323Z,7.60
2018-10-04T06:29:53.927Z,7.50
2018-10-04T06:32:22.472Z,7.80
2018-10-04T06:34:51.114Z,7.90
2018-10-04T06:37:19.846Z,8.00
2018-10-04T06:39:48.396Z,8.20
2018-10-04T06:42:16.945Z,8.30
2018-10-04T06:44:45.462Z,8.40
2018-10-04T06:47:14.268Z,8.50
2018-10-04T06:49:42.841Z,8.60
2018-10-04T06:52:11.403Z,8.70
2018-10-04T06:54:39.959Z,8.80
2018-10-04T06:57:08.574Z,8.90
2018-10-04T06:59:37.096Z,9.00
2018-10-04T07:02:05.661Z,9.20
2018-10-04T07:04:34.198Z,9.20
2018-10-04T07:07:02.753Z,9.30
2018-10-04T07:09:31.290Z,9.30
2018-10-04T07:12:00.012Z,9.30
2018-10-04T07:14:28.561Z,9.30
2018-10-04T07:16:57.125Z,9.40
2018-10-04T07:19:25.693Z,9.50
2018-10-04T07:21:54.257Z,9.70
2018-10-04T07:24:22.790Z,9.80
2018-10-04T07:26:51.356Z,9.90
2018-10-04T07:29:19.975Z,10.00
2018-10-04T07:31:48.753Z,10.10
2018-10-04T07:34:17.239Z,10.10
2018-10-04T07:36:45.801Z,10.10
2018-10-04T07:39:14.397Z,10.10
2018-10-04T07:41:42.931Z,10.10
2018-10-04T07:44:11.456Z,10.30
2018-10-04T07:46:40.040Z,10.30
2018-10-04T07:49:08.562Z,10.30
2018-10-04T07:51:37.140Z,10.20
2018-10-04T07:54:05.784Z,10.20
2018-10-04T07:56:34.508Z,10.20
2018-10-04T07:59:03.049Z,10.20
2018-10-04T08:01:38.146Z,10.20
2018-10-04T08:04:06.888Z,10.30
2018-10-04T08:06:35.641Z,10.30
2018-10-04T08:09:05.598Z,10.30
2018-10-04T08:11:34.124Z,10.30
2018-10-04T08:14:02.817Z,10.30
2018-10-04T08:16:31.401Z,10.30
2018-10-04T08:19:00.039Z,10.30
2018-10-04T08:21:28.631Z,10.30
2018-10-04T08:23:57.719Z,10.30
2018-10-04T08:26:26.251Z,10.30
2018-10-04T08:28:55.275Z,10.40
2018-10-04T08:31:23.845Z,10.40
2018-10-04T08:33:52.416Z,10.50
2018-10-04T08:36:20.965Z,10.60
2018-10-04T08:38:49.512Z,10.70
2018-10-04T08:41:18.138Z,10.80
2018-10-04T08:43:46.701Z,10.80
2018-10-04T08:46:15.275Z,10.90
2018-10-04T08:48:43.843Z,11.00
2018-10-04T08:51:12.379Z,11.00
2018-10-04T08:53:40.901Z,11.00
2018-10-04T08:56:09.439Z,11.00
2018-10-04T08:58:40.013Z,10.90
2018-10-04T09:01:08.554Z,11.00
2018-10-04T09:03:37.140Z,11.00
2018-10-04T09:06:05.700Z,11.10
2018-10-04T09:08:34.514Z,11.10
2018-10-04T09:11:03.201Z,11.10
2018-10-04T09:13:31.774Z,11.10
2018-10-04T09:16:00.582Z,11.20
2018-10-04T09:18:29.129Z,11.30
2018-10-04T09:20:57.675Z,11.30
2018-10-04T09:23:29.295Z,11.20
2018-10-04T09:25:58.312Z,11.20
2018-10-04T09:28:26.922Z,11.40
2018-10-04T09:31:01.914Z,11.50
2018-10-04T09:33:30.507Z,11.40
2018-10-04T09:35:59.068Z,11.30
2018-10-04T09:38:27.704Z,11.40
2018-10-04T09:40:56.739Z,11.60
2018-10-04T09:43:25.339Z,11.70
2018-10-04T09:45:53.890Z,11.80
2018-10-04T09:48:22.509Z,11.80
2018-10-04T09:50:51.071Z,11.80
2018-10-04T09:53:19.676Z,11.80
2018-10-04T09:55:53.434Z,11.90
2018-10-04T09:58:22.055Z,12.00
2018-10-04T10:00:55.876Z,12.10
2018-10-04T10:03:24.477Z,12.20
2018-10-04T10:05:53.173Z,12.20
2018-10-04T10:08:21.781Z,12.30
2018-10-04T10:10:50.334Z,12.40
2018-10-04T10:13:18.867Z,12.30
2018-10-04T10:15:47.444Z,12.30
2018-10-04T10:18:15.982Z,12.30
2018-10-04T10:20:44.548Z,12.30
2018-10-04T10:23:13.087Z,12.40
2018-10-04T10:25:41.635Z,12.30
2018-10-04T10:28:10.171Z,12.40
2018-10-04T10:30:38.733Z,12.40
2018-10-04T10:33:07.288Z,12.40
2018-10-04T10:35:35.819Z,12.30
2018-10-04T10:38:04.366Z,12.30
2018-10-04T10:40:33.096Z,12.40
2018-10-04T10:43:01.444Z,12.30
2018-10-04T10:45:30.006Z,12.50
2018-10-04T10:47:58.584Z,12.60
2018-10-04T10:50:27.108Z,12.50
2018-10-04T10:52:56.175Z,12.50
2018-10-04T10:55:24.783Z,12.40
2018-10-04T10:57:53.344Z,12.60
2018-10-04T11:00:21.928Z,12.50
2018-10-04T11:02:50.460Z,12.50
2018-10-04T11:05:19.022Z,12.40
2018-10-04T11:07:47.568Z,12.50
2018-10-04T11:10:16.119Z,12.50
2018-10-04T11:12:44.672Z,12.60
2018-10-04T11:15:13.381Z,12.60
2018-10-04T11:17:42.068Z,12.80
2018-10-04T11:20:10.598Z,12.80
2018-10-04T11:22:39.480Z,12.70
2018-10-04T11:25:08.017Z,12.60
2018-10-04T11:27:36.577Z,12.50
2018-10-04T11:30:05.451Z,12.50
2018-10-04T11:32:33.993Z,12.50
2018-10-04T11:35:02.545Z,12.50
2018-10-04T11:37:31.096Z,12.50
2018-10-04T11:39:59.696Z,12.40
2018-10-04T11:42:28.316Z,12.40
2018-10-04T11:44:59.172Z,12.40
2018-10-04T11:47:32.759Z,12.50
2018-10-04T11:50:01.433Z,12.40
2018-10-04T11:52:30.064Z,12.40
2018-10-04T11:54:59.134Z,12.40
2018-10-04T11:57:27.678Z,12.40
2018-10-04T11:59:56.247Z,12.30
2018-10-04T12:02:24.985Z,12.30
2018-10-04T12:04:53.567Z,12.30
2018-10-04T12:07:22.181Z,12.40
2018-10-04T12:09:50.711Z,12.40
2018-10-04T12:12:19.303Z,12.30
2018-10-04T12:14:47.922Z,12.20
2018-10-04T12:17:16.447Z,12.20
2018-10-04T12:19:45.046Z,12.20
2018-10-04T12:22:13.622Z,12.20
2018-10-04T12:24:42.331Z,12.10
2018-10-04T12:27:10.905Z,12.20
2018-10-04T12:29:39.460Z,12.20
2018-10-04T12:32:08.439Z,12.20
2018-10-04T12:34:37.021Z,12.20
2018-10-04T12:37:05.784Z,12.20
2018-10-04T12:39:34.340Z,12.30
2018-10-04T12:42:02.884Z,12.30
2018-10-04T12:44:31.748Z,12.30
2018-10-04T12:47:00.448Z,12.30
2018-10-04T12:49:28.995Z,12.30
2018-10-04T12:51:57.616Z,12.30
2018-10-04T12:54:26.339Z,12.30
2018-10-04T12:56:54.788Z,12.30
2018-10-04T12:59:23.456Z,12.30
2018-10-04T13:01:51.992Z,12.30
2018-10-04T13:04:20.593Z,12.40
2018-10-04T13:06:49.243Z,12.30
2018-10-04T13:09:17.717Z,12.30
2018-10-04T13:11:46.281Z,12.30
2018-10-04T13:14:14.965Z,12.30
2018-10-04T13:16:43.615Z,12.30
2018-10-04T13:19:12.161Z,12.30
2018-10-04T13:21:40.943Z,12.30
2018-10-04T13:24:09.384Z,12.40
2018-10-04T13:26:37.936Z,12.30
2018-10-04T13:29:06.617Z,12.40
2018-10-04T13:31:35.223Z,12.40
2018-10-04T13:34:03.761Z,12.40
2018-10-04T13:36:32.334Z,12.40
2018-10-04T13:39:00.954Z,12.40
2018-10-04T13:41:29.548Z,12.50
2018-10-04T13:43:58.106Z,12.60
2018-10-04T13:46:26.672Z,12.60
2018-10-04T13:48:55.398Z,12.60
2018-10-04T13:51:24.062Z,12.70
2018-10-04T13:53:52.693Z,12.80
2018-10-04T13:56:21.235Z,12.80
2018-10-04T13:58:49.880Z,12.80
2018-10-04T14:01:18.388Z,12.90
2018-10-04T14:03:46.951Z,13.00
2018-10-04T14:06:15.559Z,12.90
2018-10-04T14:08:44.079Z,13.00
2018-10-04T14:16:54.532Z,13.00
2018-10-04T14:19:23.391Z,13.00
2018-10-04T14:21:52.008Z,13.00
2018-10-04T14:24:20.617Z,13.10
2018-10-04T14:26:49.191Z,13.10
2018-10-04T14:29:17.731Z,13.20
2018-10-04T14:31:52.673Z,13.30
2018-10-04T14:34:21.496Z,13.50
2018-10-04T14:36:50.113Z,13.40
2018-10-04T14:39:18.701Z,13.40
2018-10-04T14:41:47.296Z,13.30
2018-10-04T14:44:15.939Z,13.40
2018-10-04T14:46:44.552Z,13.50
2018-10-04T14:49:13.622Z,13.50
2018-10-04T14:51:42.235Z,13.60
2018-10-04T14:54:10.848Z,13.60
2018-10-04T14:56:39.395Z,13.60
2018-10-04T14:59:07.945Z,13.60
2018-10-04T15:01:36.504Z,13.60
2018-10-04T15:04:05.052Z,13.60
2018-10-04T15:06:33.610Z,13.60
2018-10-04T15:09:02.195Z,13.60
2018-10-04T15:11:30.816Z,13.60
2018-10-04T15:13:59.385Z,13.60
2018-10-04T15:16:27.959Z,13.70
2018-10-04T15:18:57.268Z,13.60
2018-10-04T15:21:25.878Z,13.60
2018-10-04T15:23:54.472Z,13.60
2018-10-04T15:26:23.135Z,13.60
2018-10-04T15:28:51.738Z,13.60
2018-10-04T15:31:20.297Z,13.60
2018-10-04T15:33:49.160Z,13.60
2018-10-04T15:36:17.785Z,13.60
2018-10-04T15:38:46.641Z,13.60
2018-10-04T15:41:15.180Z,13.60
2018-10-04T15:43:43.757Z,13.60
2018-10-04T15:46:12.352Z,13.60
2018-10-04T15:48:40.964Z,13.60
2018-10-04T15:51:09.531Z,13.60
2018-10-04T15:53:38.064Z,13.60
2018-10-04T15:56:06.835Z,13.60
2018-10-04T15:58:35.519Z,13.50
2018-10-04T16:01:04.096Z,13.50
2018-10-04T16:03:32.794Z,13.50
2018-10-04T16:06:01.317Z,13.50
2018-10-04T16:08:29.852Z,13.50
2018-10-04T16:10:58.824Z,13.50
2018-10-04T16:13:27.400Z,13.40
2018-10-04T16:15:57.374Z,13.40
2018-10-04T16:18:25.931Z,13.40
2018-10-04T16:20:54.475Z,13.30
2018-10-04T16:23:23.261Z,13.30
2018-10-04T16:25:51.840Z,13.20
2018-10-04T16:28:20.413Z,13.10
2018-10-04T16:30:49.163Z,13.10
2018-10-04T16:33:17.699Z,13.00
2018-10-04T16:35:46.426Z,13.00
2018-10-04T16:38:15.065Z,12.90
2018-10-04T16:40:43.693Z,12.90
2018-10-04T16:43:12.380Z,12.90
2018-10-04T16:45:41.067Z,12.80
2018-10-04T16:48:09.679Z,12.80
2018-10-04T16:50:38.257Z,12.70
2018-10-04T16:53:06.936Z,12.70
2018-10-04T16:55:35.602Z,12.70
2018-10-04T16:58:04.193Z,12.70
2018-10-04T17:00:32.796Z,12.60
2018-10-04T17:03:01.404Z,12.60
2018-10-04T17:05:29.924Z,12.60
2018-10-04T17:07:58.460Z,12.60
2018-10-04T17:10:27.021Z,12.60
2018-10-04T17:12:55.606Z,12.50
2018-10-04T17:15:24.265Z,12.60
2018-10-04T17:17:52.848Z,12.50
2018-10-04T17:20:21.566Z,12.50
2018-10-04T17:22:50.140Z,12.50
2018-10-04T17:25:18.839Z,12.50
2018-10-04T17:27:47.423Z,12.50
2018-10-04T17:30:16.007Z,12.50
2018-10-04T17:32:44.547Z,12.50
2018-10-04T17:35:13.098Z,12.60
2018-10-04T17:37:41.842Z,12.70
2018-10-04T17:40:11.079Z,12.70
2018-10-04T17:42:40.665Z,12.70
